»·PEaware :: TWY250 KTEX-CYYC

TWY250 :: KTEX-CYYC

FLIGHT INFORMATION

Flight Status: Arrived
Operator: Unknown
More flights by this operator :: More flights under this callsign
Pilot: Andrew J. (13363)
Aircraft: BOMBARDIER BD-100 CHALLENGER 300
(CL30)
More flights by this aircraft type
Origin: KTEX Telluride Regl
United States
Destination: CYYC Calgary Intl
Canada
More flights between these airports :: More routes between these airports
Route: ETL KU87S IKNUK MOBEK EBGAL4
File this flight plan on PilotEdge
Remarks:
Altitude:
(Current/Filed)
40,000ft
Speed:
(Current/Filed)
450kts
Departed: 09-Aug-18 09:33 PM
Arrived: 09-Aug-18 11:36 PM
Distance/Time
Traveled:
830nm/2:02
Distance/Time
To Go:
Arrived

Flight Plot

Page will automatically refresh every two minutes.

Flight plan parsing failed; only flown route is shown


Map Options




Map Legend


Flown Route
Filed Route
Departure Airport
Arrival Airport
Navaid (VOR, NDB)
Fix

Horizontal Profiles

Position Reports

Time Latitude Longitude Heading Altitude Ground
Speed
09-Aug-18 21:33 38.064417 -108.003447 2 15389ft 303kts
09-Aug-18 21:34 38.155028 -108.004316 3 17394ft 353kts
09-Aug-18 21:35 38.262983 -108.004556 3 18668ft 404kts
09-Aug-18 21:36 38.374409 -108.004599 4 21440ft 407kts
09-Aug-18 21:37 38.486475 -108.004525 4 24318ft 412kts
09-Aug-18 21:38 38.603887 -108.004414 4 26318ft 436kts
09-Aug-18 21:39 38.713949 -108.004338 4 28112ft 449kts
09-Aug-18 21:40 38.841568 -108.004236 3 29741ft 470kts
09-Aug-18 21:41 38.973501 -108.004150 3 31423ft 483kts
09-Aug-18 21:42 39.081441 -108.004064 2 32712ft 491kts
09-Aug-18 21:43 39.217029 -108.003977 2 34039ft 501kts
09-Aug-18 21:44 39.356445 -108.003886 1 35162ft 504kts
09-Aug-18 21:45 39.495283 -108.003788 1 36285ft 504kts
09-Aug-18 21:46 39.609242 -108.003707 0 37079ft 507kts
09-Aug-18 21:47 39.750183 -108.003590 359 38238ft 503kts
09-Aug-18 21:48 39.891489 -108.003508 359 38881ft 514kts
09-Aug-18 21:49 40.034426 -108.003395 358 39766ft 516kts
09-Aug-18 21:50 40.176404 -108.003293 358 40515ft 520kts
09-Aug-18 21:51 40.324329 -108.003235 358 40539ft 546kts
09-Aug-18 21:52 40.479157 -108.003127 358 40542ft 570kts
09-Aug-18 21:53 40.637887 -108.003004 358 40546ft 576kts
09-Aug-18 21:54 40.798578 -108.002885 358 40552ft 582kts
09-Aug-18 21:55 40.960851 -108.002766 358 40558ft 589kts
09-Aug-18 21:56 41.118627 -108.002649 358 40539ft 596kts
09-Aug-18 21:57 41.283050 -108.002524 358 40530ft 596kts
09-Aug-18 21:58 41.448192 -108.002401 358 40537ft 596kts
09-Aug-18 21:59 41.613829 -108.002277 358 40544ft 598kts
09-Aug-18 22:00 41.780132 -108.002151 358 40550ft 599kts
09-Aug-18 22:01 41.946362 -108.002025 358 40557ft 601kts
09-Aug-18 22:02 42.111591 -108.001899 358 40549ft 603kts
09-Aug-18 22:03 42.277978 -108.001769 358 40529ft 600kts
09-Aug-18 22:04 42.443727 -108.001642 358 40536ft 597kts
09-Aug-18 22:05 42.608871 -108.001515 358 40543ft 596kts
09-Aug-18 22:06 42.774167 -108.001386 358 40550ft 596kts
09-Aug-18 22:07 42.939540 -108.001257 358 40556ft 597kts
09-Aug-18 22:08 43.103904 -108.001129 358 40560ft 599kts
09-Aug-18 22:09 43.268044 -108.000996 358 40529ft 596kts
09-Aug-18 22:10 43.433063 -108.000865 358 40536ft 594kts
09-Aug-18 22:11 43.598070 -108.000734 358 40543ft 594kts
09-Aug-18 22:12 43.762383 -108.000602 358 40549ft 594kts
09-Aug-18 22:13 43.927051 -108.000468 358 40923ft 585kts
09-Aug-18 22:14 44.085786 -108.000343 358 41560ft 572kts
09-Aug-18 22:15 44.222342 -108.000228 358 41529ft 571kts
09-Aug-18 22:16 44.380785 -108.000097 358 41534ft 570kts
09-Aug-18 22:17 44.513597 -108.024152 336 41535ft 556kts
09-Aug-18 22:18 44.651851 -108.116568 326 41545ft 551kts
09-Aug-18 22:19 44.787112 -108.217817 325 41550ft 553kts
09-Aug-18 22:20 44.922023 -108.320710 325 41556ft 556kts
09-Aug-18 22:21 45.057736 -108.424958 325 41561ft 559kts
09-Aug-18 22:22 45.191761 -108.528473 325 41530ft 560kts
09-Aug-18 22:23 45.328219 -108.634459 325 41535ft 559kts
09-Aug-18 22:24 45.461178 -108.738296 324 41537ft 560kts
09-Aug-18 22:25 45.596408 -108.844496 324 41542ft 561kts
09-Aug-18 22:26 45.733165 -108.952489 324 41547ft 564kts
09-Aug-18 22:27 45.870486 -109.061543 324 41553ft 567kts
09-Aug-18 22:28 46.009579 -109.172598 324 40325ft 583kts
09-Aug-18 22:29 46.135390 -109.307026 298 38747ft 559kts
09-Aug-18 22:30 46.194380 -109.495909 262 37008ft 491kts
09-Aug-18 22:31 46.181128 -109.677111 245 35274ft 456kts
09-Aug-18 22:32 46.187367 -109.867917 267 33507ft 496kts
09-Aug-18 22:33 46.219594 -110.063050 274 31758ft 505kts
09-Aug-18 22:34 46.256975 -110.248248 276 30095ft 495kts
09-Aug-18 22:35 46.295302 -110.431050 277 28341ft 459kts
09-Aug-18 22:36 46.331117 -110.601998 277 26613ft 431kts
09-Aug-18 22:37 46.363932 -110.760521 276 25525ft 391kts
09-Aug-18 22:38 46.392852 -110.899693 275 25355ft 339kts
09-Aug-18 22:39 46.419915 -111.031081 277 23795ft 345kts
09-Aug-18 22:40 46.447635 -111.165480 279 21960ft 353kts
09-Aug-18 22:41 46.476389 -111.305453 281 19491ft 368kts
09-Aug-18 22:42 46.505663 -111.448482 283 16740ft 372kts
09-Aug-18 22:43 46.534536 -111.590506 285 13952ft 361kts
09-Aug-18 22:44 46.561752 -111.727489 285 11180ft 349kts
09-Aug-18 22:45 46.587825 -111.850988 293 8359ft 301kts
09-Aug-18 22:46 46.631692 -111.946994 297 6598ft 248kts
09-Aug-18 22:47 46.629000 -112.021381 203 4868ft 158kts
09-Aug-18 22:48 46.607470 -111.991720 104 3858ft 99kts
09-Aug-18 22:49 46.604509 -111.983977 132 3866ft 8kts
09-Aug-18 22:50 46.603549 -111.983572 266 3872ft 0kts
09-Aug-18 22:51 46.603549 -111.983572 266 3872ft 0kts
09-Aug-18 22:52 46.603480 -111.985216 265 3872ft 27kts
09-Aug-18 22:53 46.604205 -111.993427 14 3883ft 22kts
09-Aug-18 22:54 46.607435 -111.991347 104 3857ft 24kts
09-Aug-18 22:55 46.608351 -111.943658 45 7886ft 169kts
09-Aug-18 22:56 46.659398 -111.988671 267 12530ft 318kts
09-Aug-18 22:57 46.665569 -112.101471 322 16835ft 339kts
09-Aug-18 22:58 46.759616 -112.119552 2 19731ft 360kts
09-Aug-18 22:59 46.863020 -112.124226 2 22033ft 397kts
09-Aug-18 23:00 46.977388 -112.132800 355 24300ft 426kts
09-Aug-18 23:01 47.096585 -112.167081 349 26324ft 452kts
09-Aug-18 23:02 47.218181 -112.213046 346 28024ft 473kts
09-Aug-18 23:03 47.347078 -112.266235 345 29586ft 492kts
09-Aug-18 23:04 47.478580 -112.322115 344 31365ft 499kts
09-Aug-18 23:05 47.591035 -112.370459 344 32458ft 512kts
09-Aug-18 23:06 47.752412 -112.440353 343 34258ft 519kts
09-Aug-18 23:07 47.891286 -112.500911 342 35585ft 527kts
09-Aug-18 23:08 48.033190 -112.563195 342 36551ft 539kts
09-Aug-18 23:09 48.153366 -112.616297 342 36536ft 562kts
09-Aug-18 23:10 48.303241 -112.683131 341 36534ft 581kts
09-Aug-18 23:11 48.484351 -112.764625 341 36538ft 587kts
09-Aug-18 23:12 48.614361 -112.823527 341 36542ft 588kts
09-Aug-18 23:13 48.770419 -112.894648 341 36547ft 587kts
09-Aug-18 23:14 48.926483 -112.966229 341 36553ft 587kts
09-Aug-18 23:15 49.082605 -113.038311 341 36559ft 588kts
09-Aug-18 23:16 49.236850 -113.109990 341 36530ft 585kts
09-Aug-18 23:17 49.391846 -113.182442 341 36535ft 582kts
09-Aug-18 23:18 49.545779 -113.254842 341 36541ft 581kts
09-Aug-18 23:19 49.699221 -113.327448 341 37128ft 566kts
09-Aug-18 23:20 49.847080 -113.397538 340 38549ft 560kts
09-Aug-18 23:21 49.997127 -113.469367 340 38561ft 573kts
09-Aug-18 23:22 50.148511 -113.542587 340 38529ft 581kts
09-Aug-18 23:23 50.302193 -113.617489 340 38534ft 582kts
09-Aug-18 23:24 50.456105 -113.693052 339 38114ft 590kts
09-Aug-18 23:25 50.613606 -113.745762 351 35384ft 567kts
09-Aug-18 23:26 50.764873 -113.785845 352 31221ft 540kts
09-Aug-18 23:27 50.907098 -113.824784 352 26799ft 502kts
09-Aug-18 23:28 51.041265 -113.862288 352 22044ft 479kts
09-Aug-18 23:29 51.164212 -113.896529 352 17620ft 437kts
09-Aug-18 23:30 51.276436 -113.927375 345 13528ft 388kts
09-Aug-18 23:31 51.318001 -114.006790 266 10067ft 317kts
09-Aug-18 23:32 51.265375 -114.058602 163 6962ft 218kts
09-Aug-18 23:33 51.215381 -114.029706 165 4169ft 173kts
09-Aug-18 23:34 51.173609 -114.020576 182 2118ft 135kts
09-Aug-18 23:35 51.138549 -114.021334 181 453ft 116kts
09-Aug-18 23:36 51.111981 -114.021380 177 6ft 57kts
09-Aug-18 23:37 51.104123 -114.023043 270 6ft 14kts
09-Aug-18 23:38 51.101208 -114.027037 181 6ft 1kts
09-Aug-18 23:39 51.101207 -114.027037 182 6ft 0kts
09-Aug-18 23:40 51.101207 -114.027037 182 6ft 0kts

Navigation Log

Ident Type
Flight plan parsing failed, navigation log unavailable